Terminal Aerodrome Forecast
Issued by NWS Charleston, WV

Current Version | Previous Version | Graphics & Text | Print | Product List | Glossary On
Versions: 1 2 3 4 5 6 7 8 9 10 11 12 13 14 15 16 17 18 19 20 21 22 23 24 25 26 27 28 29 30 31
000
FTUS41 KRLX 032053 AAA
TAFCRW
TAF AMD
KCRW 032053Z 0321/0418 VRB03KT 5SM SHRA VCTS OVC025CB
     FM040000 VRB02KT 6SM BR VCSH BKN020 OVC050
     FM040300 25005KT 3SM BR OVC015
     FM040700 24004KT P6SM OVC008
     FM041400 24004KT P6SM BKN025=

USA.gov is the U.S. government's official web portal to all federal, state and local government web resources and services.